EGHE/ISC METAR and TAF weather

Enter ICAO airport designator
Station Type Date Time Source
EGHE METAR 2020/02/20 16:50 UTC NOAA

EGHE 201650Z 28021KT 9999 FEW020 08/02 Q1021


Station Type Date Time Source
EGHE Decoded METAR 2020/02/20 16:50 UTC NOAA

Scilly, Saint Mary'S, United Kingdom (EGHE) 49-55N 006-18W 0M
Feb 20, 2020 - 11:50 AM EST / 2020.02.20 1650 UTC
Wind: from the W (280 degrees) at 24 MPH (21 KT):0
Visibility: greater than 7 mile(s):0
Sky conditions: mostly clear
Temperature: 46 F (8 C)
Dew Point: 35 F (2 C)
Relative Humidity: 65%
Pressure (altimeter): 30.15 in. Hg (1021 hPa)
ob: EGHE 201650Z 28021KT 9999 FEW020 08/02 Q1021
cycle: 17

Station Type Date Time Source
EGHE TAF UTC NOAA

Error!

Example: see airport list